Huangpi, China
Current Conditions -  °F | °C
As of 1:00 PM on Saturday 25 Oct 2014 (Local Time) from ZHHH Reporting Station
Clear Clear  
Wind Chill: 81°   Ceiling: Unl
Heat Index: 81°   Visibility: 4mi
Dew Point: 61°   Wind: 7mph
Humidity: 51%   Direction: 220°SW
Pressure: 29.97"   Gusts: NA
Location:  30.87°N, 114.36°E
Report Text: ZHHH 250500Z 22003MPS 190V260 7000 NSC 27/16 Q1015 NOSIG
Loading
Personal Weather Stations






























Interactive Weather Map
Tropical Storm Tracking
New forecast layout! Learn more

10-Day Weather Forecast

Advertisements
Track Severe Weather on mobile